China, Texas
Current Conditions -  °F | °C
As of 1:55 AM on Friday 31 Oct 2014 (Local Time) from KBMT Reporting Station
Clear Clear  
Wind Chill: 55°   Ceiling: Unl
Heat Index: 55°   Visibility: 10mi
Dew Point: 52°   Wind: 0mph
Humidity: 91%   Direction: NA
Pressure: 30.1"   Gusts: NA
Location:  30.05°N, 94.34°W
Report Text: KBMT 310655Z AUTO 00000KT 10SM CLR 13/11 A3010 RMK AO2 T01250110
Loading
Personal Weather Stations






























Interactive Weather Map
Tropical Storm Tracking
New forecast layout! Learn more

10-Day Weather Forecast

Advertisements
Track Severe Weather on mobile